Time;durP1;ratioP1;P1;durP2;ratioP2;P2;SDS_P1;SDS_P2;PMS_P1;PMS_P2;Temp;Humidity;BMP_temperature;BMP_pressure;BME280_temperature;BME280_humidity;BME280_pressure;Samples;Min_cycle;Max_cycle;Signal;HPM_P1;HPM_P2
2021/11/03 00:02:10;;;;;;;0.80;0.47;;;10.60;99.90;;;;;;5073693;28;20210;-70
2021/11/03 00:04:39;;;;;;;0.77;0.50;;;10.60;99.90;;;;;;5073824;28;20230;-68
2021/11/03 00:07:06;;;;;;;0.87;0.60;;;10.70;99.90;;;;;;5073547;28;20214;-84
2021/11/03 00:09:33;;;;;;;1.23;0.80;;;10.70;99.90;;;;;;5073556;28;20203;-74
2021/11/03 00:12:02;;;;;;;1.83;0.60;;;10.80;99.90;;;;;;5072685;28;20977;-72
2021/11/03 00:14:29;;;;;;;2.43;0.60;;;10.80;99.90;;;;;;5072442;28;20703;-68
2021/11/03 00:16:56;;;;;;;0.80;0.40;;;10.80;99.90;;;;;;5072602;28;20202;-68
2021/11/03 00:19:23;;;;;;;0.70;0.40;;;10.70;99.90;;;;;;5072731;28;20206;-72
2021/11/03 00:21:50;;;;;;;0.67;0.30;;;10.70;99.90;;;;;;5072491;28;20206;-70
2021/11/03 00:24:17;;;;;;;0.40;0.40;;;10.70;99.90;;;;;;5072516;28;20716;-77
2021/11/03 00:26:44;;;;;;;0.97;0.20;;;10.60;99.90;;;;;;5072497;28;20251;-68
2021/11/03 00:29:12;;;;;;;1.87;0.40;;;10.60;99.90;;;;;;5073110;28;20616;-79
2021/11/03 00:31:39;;;;;;;1.27;0.30;;;10.70;99.90;;;;;;5073025;28;20673;-70
2021/11/03 00:34:06;;;;;;;2.53;0.40;;;10.70;99.90;;;;;;5072776;28;20259;-74
2021/11/03 00:36:34;;;;;;;0.33;0.30;;;10.70;99.90;;;;;;5072161;28;20625;-69
2021/11/03 00:39:01;;;;;;;2.20;0.83;;;10.70;99.90;;;;;;5072134;28;20210;-68
2021/11/03 00:41:28;;;;;;;0.60;0.30;;;10.70;99.90;;;;;;5072242;28;20215;-81
2021/11/03 00:43:55;;;;;;;0.30;0.20;;;10.60;99.90;;;;;;5072029;28;20283;-68
2021/11/03 00:46:23;;;;;;;3.60;0.87;;;10.60;99.90;;;;;;5072467;28;20206;-72
2021/11/03 00:48:51;;;;;;;1.10;0.30;;;10.60;99.90;;;;;;5072010;28;20279;-74
2021/11/03 00:51:18;;;;;;;1.53;0.50;;;10.60;99.90;;;;;;5072460;28;20207;-83
2021/11/03 00:53:45;;;;;;;1.07;0.40;;;10.60;99.90;;;;;;5071653;28;20255;-82
2021/11/03 00:56:12;;;;;;;2.53;0.60;;;10.60;99.90;;;;;;5072588;28;20202;-71
2021/11/03 00:58:39;;;;;;;0.37;0.20;;;10.50;99.90;;;;;;5072167;28;20210;-72
2021/11/03 01:01:07;;;;;;;0.43;0.30;;;10.50;99.90;;;;;;5072251;28;20263;-71
2021/11/03 01:03:35;;;;;;;2.33;0.77;;;10.50;99.90;;;;;;5072166;28;20251;-71
2021/11/03 01:06:02;;;;;;;1.17;0.60;;;10.50;99.90;;;;;;5071542;28;20251;-71
2021/11/03 01:08:29;;;;;;;1.70;0.30;;;10.60;99.90;;;;;;5072016;28;20628;-71
2021/11/03 01:10:56;;;;;;;1.83;0.50;;;10.50;99.90;;;;;;5071146;28;20202;-72
2021/11/03 01:13:25;;;;;;;1.93;0.33;;;10.50;99.90;;;;;;5071911;28;20210;-74
2021/11/03 01:15:57;;;;;;;0.60;0.33;;;10.40;99.90;;;;;;5071071;28;20213;-71
2021/11/03 01:18:24;;;;;;;0.47;0.40;;;10.40;99.90;;;;;;5071921;28;20285;-71
2021/11/03 01:20:54;;;;;;;0.40;0.40;;;10.40;99.90;;;;;;5071186;28;20251;-71
2021/11/03 01:23:22;;;;;;;1.30;0.40;;;10.40;99.90;;;;;;5071735;28;20251;-74
2021/11/03 01:25:50;;;;;;;3.70;0.40;;;10.40;99.90;;;;;;5070531;28;20284;-73
2021/11/03 01:28:17;;;;;;;0.77;0.60;;;10.40;99.90;;;;;;5071156;28;20207;-71
2021/11/03 01:30:45;;;;;;;2.53;0.40;;;10.30;99.90;;;;;;5071037;28;20719;-71
2021/11/03 01:33:13;;;;;;;1.03;0.30;;;10.30;99.90;;;;;;5071328;28;20268;-75
2021/11/03 01:35:40;;;;;;;0.50;0.50;;;10.30;99.90;;;;;;5071392;28;20632;-73
2021/11/03 01:38:09;;;;;;;0.83;0.40;;;10.30;99.90;;;;;;5071589;28;20290;-73
2021/11/03 01:40:40;;;;;;;0.87;0.53;;;10.30;99.90;;;;;;5071584;28;20276;-73
2021/11/03 01:43:09;;;;;;;0.47;0.20;;;10.40;99.90;;;;;;5071476;28;20210;-73
2021/11/03 01:45:37;;;;;;;1.93;0.60;;;10.40;99.90;;;;;;5071429;28;20221;-73
2021/11/03 01:48:05;;;;;;;0.53;0.40;;;10.40;99.90;;;;;;5070842;28;20256;-75
2021/11/03 01:50:38;;;;;;;0.90;0.30;;;10.40;99.90;;;;;;5071075;28;20202;-76
2021/11/03 01:53:11;;;;;;;0.57;0.37;;;10.40;99.90;;;;;;5071208;28;20206;-73
2021/11/03 01:55:44;;;;;;;0.53;0.43;;;10.40;99.90;;;;;;5071284;28;20206;-74
2021/11/03 01:58:14;;;;;;;0.33;0.20;;;10.40;99.90;;;;;;5070700;28;20206;-72
2021/11/03 02:00:44;;;;;;;1.90;0.30;;;10.40;99.90;;;;;;5070909;28;20206;-73
2021/11/03 02:03:15;;;;;;;1.63;0.83;;;10.40;99.90;;;;;;5071027;28;20202;-73
2021/11/03 02:05:44;;;;;;;0.60;0.40;;;10.40;99.90;;;;;;5070415;28;20233;-72
2021/11/03 02:08:13;;;;;;;0.47;0.30;;;10.40;99.90;;;;;;5071061;28;20206;-73
2021/11/03 02:10:40;;;;;;;1.33;0.80;;;10.40;99.90;;;;;;5070731;28;20206;-71
2021/11/03 02:13:11;;;;;;;0.63;0.63;;;10.40;99.90;;;;;;5071104;28;20214;-70
2021/11/03 02:15:38;;;;;;;0.40;0.20;;;10.40;99.90;;;;;;5070810;28;20645;-72
2021/11/03 02:18:06;;;;;;;0.80;0.30;;;10.50;99.90;;;;;;5070657;28;20665;-74
2021/11/03 02:20:34;;;;;;;1.00;0.30;;;10.30;99.90;;;;;;5070888;28;20209;-72
2021/11/03 02:23:17;;;;;;;2.30;0.40;;;10.40;99.90;;;;;;5069959;28;20210;-71
2021/11/03 02:25:48;;;;;;;0.60;0.37;;;10.30;99.90;;;;;;5069837;28;20225;-71
2021/11/03 02:28:17;;;;;;;1.70;0.30;;;10.40;99.90;;;;;;5070707;28;20287;-73
2021/11/03 02:30:44;;;;;;;1.37;0.43;;;10.40;99.90;;;;;;5070375;28;20213;-73
2021/11/03 02:33:16;;;;;;;3.70;0.40;;;10.40;99.90;;;;;;5070398;28;20202;-73
2021/11/03 02:35:50;;;;;;;1.17;0.30;;;10.40;99.90;;;;;;5070048;28;20674;-75
2021/11/03 02:38:28;;;;;;;1.37;0.50;;;10.30;99.90;;;;;;5070035;28;20752;-71
2021/11/03 02:41:02;;;;;;;5.60;0.53;;;10.30;99.90;;;;;;5069742;28;20218;-71
2021/11/03 02:43:33;;;;;;;0.70;0.40;;;10.30;99.90;;;;;;5070076;28;20202;-72
2021/11/03 02:46:02;;;;;;;1.33;0.47;;;10.30;99.90;;;;;;5070010;28;20283;-75
2021/11/03 02:48:33;;;;;;;0.30;0.23;;;10.40;99.90;;;;;;5070081;28;20202;-75
2021/11/03 02:51:06;;;;;;;0.57;0.30;;;10.30;99.90;;;;;;5070085;28;20716;-75
2021/11/03 02:53:36;;;;;;;5.13;0.50;;;10.30;99.90;;;;;;5070325;28;20637;-75
2021/11/03 02:56:06;;;;;;;1.63;0.60;;;10.40;99.90;;;;;;5068267;28;20628;-75
2021/11/03 02:58:34;;;;;;;1.80;0.47;;;10.40;99.90;;;;;;5063124;28;20739;-73
2021/11/03 03:01:11;;;;;;;0.73;0.30;;;10.30;99.90;;;;;;5069336;28;20582;-76
2021/11/03 03:03:38;;;;;;;1.03;0.30;;;10.20;99.90;;;;;;5070485;28;20239;-75
2021/11/03 03:06:10;;;;;;;3.70;0.97;;;10.10;99.90;;;;;;5069483;28;20717;-75
2021/11/03 03:08:37;;;;;;;1.13;0.47;;;10.20;99.90;;;;;;5070403;28;20231;-75
2021/11/03 03:11:05;;;;;;;0.80;0.40;;;10.20;99.90;;;;;;5062468;28;20682;-75
2021/11/03 03:13:33;;;;;;;1.40;0.50;;;10.20;99.90;;;;;;5063553;28;20611;-75
2021/11/03 03:16:00;;;;;;;1.10;0.40;;;10.10;99.90;;;;;;5069482;28;20316;-74
2021/11/03 03:18:27;;;;;;;1.57;0.30;;;10.10;99.90;;;;;;5070358;28;20573;-75
2021/11/03 03:20:54;;;;;;;1.97;0.37;;;10.00;99.90;;;;;;5069481;28;20719;-74
2021/11/03 03:23:21;;;;;;;0.70;0.30;;;9.90;99.90;;;;;;5069917;28;20203;-74
2021/11/03 03:25:51;;;;;;;2.03;0.87;;;9.90;99.90;;;;;;5069201;28;20283;-73
2021/11/03 03:28:19;;;;;;;2.17;0.30;;;9.80;99.90;;;;;;5070134;28;20211;-72
2021/11/03 03:30:47;;;;;;;0.70;0.27;;;9.80;99.90;;;;;;5069121;28;20670;-72
2021/11/03 03:33:14;;;;;;;1.30;0.20;;;9.70;99.90;;;;;;5070232;28;20241;-73
2021/11/03 03:35:41;;;;;;;1.27;0.50;;;9.60;99.90;;;;;;5070328;28;20287;-73
2021/11/03 03:38:08;;;;;;;5.67;0.57;;;9.50;99.90;;;;;;5069791;28;20236;-73
2021/11/03 03:40:35;;;;;;;0.77;0.47;;;9.50;99.90;;;;;;5069688;28;20218;-72
2021/11/03 03:43:02;;;;;;;2.13;0.70;;;9.50;99.90;;;;;;5069142;28;20782;-72
2021/11/03 03:45:30;;;;;;;0.60;0.30;;;9.30;99.90;;;;;;5070019;28;20230;-73
2021/11/03 03:47:57;;;;;;;1.27;0.33;;;9.30;99.90;;;;;;5069482;28;20214;-73
2021/11/03 03:50:25;;;;;;;1.20;0.30;;;9.30;99.90;;;;;;5073638;28;20206;-72
2021/11/03 03:52:52;;;;;;;0.87;0.30;;;9.20;99.90;;;;;;5072291;28;20210;-72
2021/11/03 03:55:19;;;;;;;2.00;0.40;;;9.20;99.90;;;;;;5073399;28;20211;-72
2021/11/03 03:57:46;;;;;;;3.23;0.40;;;9.20;99.90;;;;;;5073138;28;20264;-73
2021/11/03 04:00:18;;;;;;;0.60;0.47;;;9.10;99.90;;;;;;5072996;28;20207;-72
2021/11/03 04:02:47;;;;;;;3.30;1.80;;;9.10;99.90;;;;;;5072681;28;20207;-73
2021/11/03 04:05:15;;;;;;;1.00;0.50;;;9.20;99.90;;;;;;5072921;28;20280;-74
2021/11/03 04:07:42;;;;;;;5.03;1.30;;;9.20;99.90;;;;;;5072491;28;20256;-74
2021/11/03 04:10:10;;;;;;;1.90;0.33;;;9.10;99.90;;;;;;5073356;28;20206;-73
2021/11/03 04:12:37;;;;;;;2.33;0.60;;;9.10;99.90;;;;;;5073677;28;20206;-73
2021/11/03 04:15:05;;;;;;;1.50;0.50;;;9.10;99.90;;;;;;5072379;28;20644;-73
2021/11/03 04:17:32;;;;;;;4.03;0.60;;;9.10;99.90;;;;;;5072823;28;20206;-74
2021/11/03 04:20:01;;;;;;;3.60;0.40;;;9.10;99.90;;;;;;5072425;28;20206;-73
2021/11/03 04:22:28;;;;;;;1.00;0.60;;;9.00;99.90;;;;;;5072610;28;20271;-72
2021/11/03 04:24:55;;;;;;;2.00;0.83;;;9.00;99.90;;;;;;5072361;28;20704;-72
2021/11/03 04:27:22;;;;;;;1.63;0.47;;;9.00;99.90;;;;;;5072595;28;20202;-72
2021/11/03 04:29:49;;;;;;;0.67;0.67;;;9.00;99.90;;;;;;5072249;28;20678;-72
2021/11/03 04:32:16;;;;;;;0.87;0.47;;;9.00;99.90;;;;;;5072349;28;20739;-72
2021/11/03 04:34:44;;;;;;;1.77;0.50;;;9.00;99.90;;;;;;5072255;28;20215;-72
2021/11/03 04:37:12;;;;;;;1.50;0.30;;;9.00;99.90;;;;;;5072362;28;20264;-72
2021/11/03 04:39:40;;;;;;;1.53;0.30;;;9.00;99.90;;;;;;5073116;28;20639;-71
2021/11/03 04:42:07;;;;;;;1.63;0.50;;;8.90;99.90;;;;;;5072544;28;20214;-72
2021/11/03 04:44:34;;;;;;;1.47;0.50;;;8.80;99.90;;;;;;5072417;28;20206;-72
2021/11/03 04:47:02;;;;;;;1.27;0.40;;;8.90;99.90;;;;;;5071876;28;20210;-72
2021/11/03 04:49:29;;;;;;;1.93;0.33;;;8.80;99.90;;;;;;5072230;28;20202;-74
2021/11/03 04:51:56;;;;;;;1.63;0.70;;;8.80;99.90;;;;;;5071739;28;20210;-74
2021/11/03 04:54:24;;;;;;;6.30;0.63;;;8.80;99.90;;;;;;5071928;28;20251;-73
2021/11/03 04:56:51;;;;;;;1.43;0.37;;;8.80;99.90;;;;;;5071910;28;20634;-73
2021/11/03 04:59:19;;;;;;;0.53;0.40;;;8.80;99.90;;;;;;5071915;28;20259;-74
2021/11/03 05:01:46;;;;;;;0.63;0.50;;;8.80;99.90;;;;;;5071768;28;20206;-72
2021/11/03 05:04:13;;;;;;;2.60;0.37;;;8.70;99.90;;;;;;5072197;28;20255;-72
2021/11/03 05:06:44;;;;;;;2.00;0.30;;;8.70;99.90;;;;;;5071560;28;20237;-72
2021/11/03 05:09:12;;;;;;;1.30;0.40;;;8.80;99.90;;;;;;5072042;28;20202;-72
2021/11/03 05:11:40;;;;;;;2.80;0.33;;;8.80;99.90;;;;;;5071923;28;20210;-71
2021/11/03 05:14:07;;;;;;;1.00;0.50;;;8.70;99.90;;;;;;5072142;28;20635;-73
2021/11/03 05:16:35;;;;;;;3.00;0.50;;;8.70;99.90;;;;;;5071960;28;20635;-72
2021/11/03 05:19:03;;;;;;;3.07;0.40;;;8.70;99.90;;;;;;5071195;28;20263;-72
2021/11/03 05:21:32;;;;;;;1.40;0.30;;;8.70;99.90;;;;;;5071413;28;21070;-71
2021/11/03 05:23:59;;;;;;;0.97;0.60;;;8.60;99.90;;;;;;5103477;28;20198;-72
2021/11/03 05:26:27;;;;;;;0.50;0.33;;;8.60;99.90;;;;;;5071432;28;20234;-72
2021/11/03 05:28:59;;;;;;;0.30;0.30;;;8.50;99.90;;;;;;5070717;28;20210;-72
2021/11/03 05:31:26;;;;;;;3.57;0.50;;;8.60;99.90;;;;;;5071624;28;20281;-71
2021/11/03 05:33:53;;;;;;;0.67;0.30;;;8.60;99.90;;;;;;5070898;28;20210;-71
2021/11/03 05:36:24;;;;;;;0.53;0.40;;;8.60;99.90;;;;;;5071244;28;20271;-72
2021/11/03 05:38:51;;;;;;;2.97;0.40;;;8.60;99.90;;;;;;5064320;28;20206;-71
2021/11/03 05:41:19;;;;;;;1.03;0.50;;;8.60;99.90;;;;;;5066776;28;20624;-71
2021/11/03 05:43:46;;;;;;;1.53;0.30;;;8.50;99.90;;;;;;5070634;28;20209;-72
2021/11/03 05:46:16;;;;;;;0.77;0.40;;;8.50;99.90;;;;;;5069439;28;20271;-72
2021/11/03 05:48:48;;;;;;;0.53;0.30;;;8.50;99.90;;;;;;5070325;28;20275;-72
2021/11/03 05:51:15;;;;;;;1.67;0.50;;;8.50;99.90;;;;;;5070824;28;20737;-72
2021/11/03 05:53:42;;;;;;;0.37;0.20;;;8.50;99.90;;;;;;5070107;28;20585;-72
2021/11/03 05:56:11;;;;;;;0.40;0.30;;;8.50;99.90;;;;;;5069486;28;20280;-71
2021/11/03 05:58:38;;;;;;;1.80;0.50;;;8.50;99.90;;;;;;5066599;28;20260;-72
2021/11/03 06:01:07;;;;;;;2.03;0.50;;;8.50;99.90;;;;;;5070930;28;20209;-72
2021/11/03 06:03:35;;;;;;;0.60;0.60;;;8.50;99.90;;;;;;5070552;28;20202;-70
2021/11/03 06:06:03;;;;;;;0.90;0.40;;;8.50;99.90;;;;;;5070276;28;20230;-70
2021/11/03 06:08:30;;;;;;;2.13;0.40;;;8.40;99.90;;;;;;5070269;28;20452;-71
2021/11/03 06:11:00;;;;;;;0.90;0.40;;;8.50;99.90;;;;;;5070394;28;20206;-71
2021/11/03 06:13:27;;;;;;;1.17;0.40;;;8.30;99.90;;;;;;5070364;28;20297;-71
2021/11/03 06:15:54;;;;;;;1.43;0.63;;;8.40;99.90;;;;;;5070530;28;20202;-71
2021/11/03 06:18:21;;;;;;;1.77;0.50;;;8.40;99.90;;;;;;5070127;28;20210;-71
2021/11/03 06:20:49;;;;;;;0.47;0.33;;;8.40;99.90;;;;;;5070015;28;20206;-71
2021/11/03 06:23:16;;;;;;;0.40;0.30;;;8.40;99.90;;;;;;5070181;28;20267;-71
2021/11/03 06:25:43;;;;;;;1.73;0.57;;;8.40;99.90;;;;;;5069885;28;20226;-74
2021/11/03 06:28:11;;;;;;;0.30;0.27;;;8.40;99.90;;;;;;5070309;28;20259;-74
2021/11/03 06:30:38;;;;;;;2.07;0.60;;;8.40;99.90;;;;;;5070479;28;20293;-73
2021/11/03 06:33:06;;;;;;;0.67;0.47;;;8.40;99.90;;;;;;5065155;28;20210;-74
2021/11/03 06:35:35;;;;;;;2.00;1.43;;;8.40;99.90;;;;;;5070283;28;20218;-73
2021/11/03 06:38:06;;;;;;;0.60;0.43;;;8.40;99.90;;;;;;5070019;28;20296;-72
2021/11/03 06:40:35;;;;;;;1.53;0.70;;;8.30;99.90;;;;;;5070068;28;20214;-71
2021/11/03 06:43:03;;;;;;;2.67;1.20;;;8.30;99.90;;;;;;5070011;28;20202;-71
2021/11/03 06:45:31;;;;;;;1.30;0.77;;;8.20;99.90;;;;;;5070058;28;20230;-72
2021/11/03 06:47:59;;;;;;;0.87;0.40;;;8.20;99.90;;;;;;5069330;28;20228;-72
2021/11/03 06:50:29;;;;;;;1.27;0.40;;;8.20;99.90;;;;;;5070239;28;20198;-72
2021/11/03 06:52:58;;;;;;;0.50;0.40;;;8.30;99.90;;;;;;5069575;28;20757;-73
2021/11/03 06:55:27;;;;;;;0.87;0.60;;;8.40;99.90;;;;;;5069441;28;20205;-74
2021/11/03 06:57:56;;;;;;;1.20;0.40;;;8.40;99.90;;;;;;5069582;28;20559;-72
2021/11/03 07:00:27;;;;;;;1.27;0.37;;;8.40;99.90;;;;;;5069822;28;20626;-72
2021/11/03 07:02:54;;;;;;;1.27;0.83;;;8.40;99.90;;;;;;5069578;28;20629;-73
2021/11/03 07:05:21;;;;;;;1.97;0.57;;;8.50;99.90;;;;;;5070115;28;20312;-71
2021/11/03 07:07:48;;;;;;;2.73;0.67;;;8.50;99.90;;;;;;5070037;28;20271;-71
2021/11/03 07:10:21;;;;;;;4.13;0.80;;;8.50;99.90;;;;;;5069827;28;20199;-72
2021/11/03 07:12:50;;;;;;;2.97;1.17;;;8.50;99.90;;;;;;5069616;28;20554;-72
2021/11/03 07:15:17;;;;;;;3.30;1.03;;;8.50;99.90;;;;;;5066993;28;20211;-72
2021/11/03 07:17:45;;;;;;;2.33;0.90;;;8.40;99.90;;;;;;5060620;28;20207;-71
2021/11/03 07:20:13;;;;;;;2.70;0.90;;;8.50;99.90;;;;;;5064254;28;20299;-74
2021/11/03 07:22:40;;;;;;;1.67;0.60;;;8.60;99.90;;;;;;5062747;28;20670;-72
2021/11/03 07:25:09;;;;;;;3.77;0.63;;;8.50;99.90;;;;;;5073788;28;20202;-74
2021/11/03 07:27:36;;;;;;;0.90;0.60;;;9.20;99.90;;;;;;5073830;28;20300;-71
2021/11/03 07:30:05;;;;;;;2.03;0.80;;;9.30;99.90;;;;;;5073140;28;20693;-71
2021/11/03 07:32:32;;;;;;;2.10;0.93;;;9.30;99.90;;;;;;5073268;28;20743;-73
2021/11/03 07:35:00;;;;;;;1.93;1.03;;;9.20;99.90;;;;;;5069139;28;20210;-71
2021/11/03 07:37:27;;;;;;;1.17;0.60;;;9.20;99.90;;;;;;5067237;28;20210;-71
2021/11/03 07:39:54;;;;;;;2.10;0.60;;;9.30;99.90;;;;;;5058895;28;20327;-70
2021/11/03 07:42:21;;;;;;;0.80;0.40;;;9.50;99.90;;;;;;5067983;28;20225;-70
2021/11/03 07:44:48;;;;;;;2.93;0.83;;;9.70;99.90;;;;;;5072328;28;20339;-70
2021/11/03 07:47:17;;;;;;;1.93;0.70;;;9.70;99.90;;;;;;5071496;28;20231;-71
2021/11/03 07:49:44;;;;;;;2.23;0.87;;;9.60;99.90;;;;;;5072587;28;20279;-71
2021/11/03 07:52:11;;;;;;;1.00;0.80;;;9.70;99.90;;;;;;5076904;28;20463;-71
2021/11/03 07:54:38;;;;;;;2.40;0.87;;;9.80;99.90;;;;;;5072038;28;20205;-71
2021/11/03 07:57:06;;;;;;;1.33;0.67;;;9.80;99.90;;;;;;5059971;28;20685;-72
2021/11/03 07:59:33;;;;;;;1.80;0.70;;;9.70;99.90;;;;;;5062004;28;20253;-70
2021/11/03 08:02:00;;;;;;;1.83;1.23;;;9.90;99.90;;;;;;5065203;28;21040;-71
2021/11/03 08:04:30;;;;;;;2.80;0.90;;;10.20;99.90;;;;;;5060494;28;20259;-71
2021/11/03 08:06:57;;;;;;;2.33;1.00;;;10.10;99.90;;;;;;5070818;28;20709;-70
2021/11/03 08:09:25;;;;;;;1.87;0.80;;;10.30;99.90;;;;;;5081534;28;20259;-70
2021/11/03 08:11:56;;;;;;;0.67;0.67;;;10.40;99.90;;;;;;5067273;28;20212;-71
2021/11/03 08:14:25;;;;;;;2.43;0.50;;;10.50;99.90;;;;;;5066069;28;20207;-71
2021/11/03 08:16:57;;;;;;;2.80;1.00;;;10.50;99.90;;;;;;5060605;28;20301;-71
2021/11/03 08:19:35;;;;;;;5.10;0.60;;;10.50;99.90;;;;;;5072936;28;20210;-69
2021/11/03 08:22:02;;;;;;;1.17;0.40;;;10.50;99.90;;;;;;5068516;28;20215;-69
2021/11/03 08:24:29;;;;;;;1.47;0.53;;;10.70;99.90;;;;;;5067723;28;20210;-72
2021/11/03 08:26:56;;;;;;;1.13;0.63;;;10.80;99.90;;;;;;5070763;28;20276;-72
2021/11/03 08:29:25;;;;;;;0.80;0.40;;;11.10;99.90;;;;;;5065602;28;20661;-70
2021/11/03 08:31:55;;;;;;;1.30;0.30;;;11.10;99.90;;;;;;5064543;28;20210;-71
2021/11/03 08:34:23;;;;;;;0.40;0.40;;;11.00;99.90;;;;;;5065488;28;20216;-72
2021/11/03 08:36:52;;;;;;;0.70;0.33;;;11.20;99.90;;;;;;5077751;28;20259;-74
2021/11/03 08:39:19;;;;;;;3.47;0.77;;;11.10;99.90;;;;;;5066185;28;20256;-71
2021/11/03 08:41:46;;;;;;;0.80;0.50;;;11.00;99.90;;;;;;5059948;28;20210;-73
2021/11/03 08:44:14;;;;;;;1.80;0.30;;;11.10;99.90;;;;;;5063546;28;20259;-72
2021/11/03 08:46:42;;;;;;;0.50;0.40;;;11.10;99.90;;;;;;5066100;28;20283;-72
2021/11/03 08:49:10;;;;;;;1.30;0.60;;;11.00;99.90;;;;;;5067656;28;20301;-72
2021/11/03 08:51:39;;;;;;;0.63;0.30;;;11.10;99.90;;;;;;5070059;28;20624;-74
2021/11/03 08:54:08;;;;;;;0.97;0.40;;;11.30;99.90;;;;;;5055986;28;20202;-71
2021/11/03 08:56:36;;;;;;;0.60;0.30;;;11.40;99.90;;;;;;5057412;28;20210;-72
2021/11/03 08:59:04;;;;;;;3.63;0.50;;;11.40;99.90;;;;;;5053165;28;20206;-71
2021/11/03 09:01:31;;;;;;;0.50;0.30;;;11.40;99.90;;;;;;5061468;28;20210;-78
2021/11/03 09:03:58;;;;;;;0.20;0.20;;;11.30;99.90;;;;;;5060217;28;20202;-74
2021/11/03 09:06:25;;;;;;;0.50;0.30;;;11.00;99.90;;;;;;5066083;28;20274;-74
2021/11/03 09:08:52;;;;;;;0.80;0.30;;;10.80;99.90;;;;;;5072232;28;20206;-71
2021/11/03 09:11:22;;;;;;;0.67;0.20;;;11.00;99.90;;;;;;5071606;28;20252;-71
2021/11/03 09:13:51;;;;;;;0.73;0.27;;;11.30;99.90;;;;;;5068687;28;20210;-77
2021/11/03 09:16:19;;;;;;;2.30;0.40;;;11.30;99.90;;;;;;5070895;28;20300;-76
2021/11/03 09:18:46;;;;;;;1.50;0.40;;;11.30;99.90;;;;;;5070096;28;20206;-75
2021/11/03 09:21:14;;;;;;;1.47;0.40;;;11.40;99.90;;;;;;5072459;28;20210;-70
2021/11/03 09:23:41;;;;;;;0.50;0.20;;;11.80;99.90;;;;;;5071269;28;20256;-70
2021/11/03 09:26:08;;;;;;;0.85;0.40;;;12.40;99.90;;;;;;5064122;28;20730;-75
2021/11/03 09:28:37;;;;;;;2.30;0.50;;;12.60;99.90;;;;;;5069247;28;20212;-71
2021/11/03 09:31:06;;;;;;;0.20;0.20;;;12.00;99.90;;;;;;5065980;28;20230;-70
2021/11/03 09:33:35;;;;;;;0.30;0.30;;;11.50;99.90;;;;;;5063492;28;20289;-71
2021/11/03 09:36:04;;;;;;;0.30;0.20;;;11.80;99.90;;;;;;5060507;28;20214;-75
2021/11/03 09:38:33;;;;;;;0.60;0.40;;;12.00;99.90;;;;;;5066067;28;20271;-76
2021/11/03 09:41:02;;;;;;;2.00;0.40;;;12.60;99.90;;;;;;5063411;28;20245;-74
2021/11/03 09:43:34;;;;;;;2.20;0.30;;;13.70;99.90;;;;;;5066328;28;20267;-71
2021/11/03 09:46:16;;;;;;;1.23;0.30;;;13.60;99.90;;;;;;5072471;28;20247;-72
2021/11/03 09:48:43;;;;;;;1.35;0.45;;;14.40;99.90;;;;;;5072861;28;20271;-71
2021/11/03 09:51:17;;;;;;;0.77;0.30;;;14.90;99.90;;;;;;5071014;28;20210;-71
2021/11/03 09:53:46;;;;;;;2.47;0.30;;;16.70;99.90;;;;;;5068444;28;20267;-72
2021/11/03 09:56:16;;;;;;;0.20;0.20;;;17.60;99.90;;;;;;5066784;28;20267;-76
2021/11/03 09:58:52;;;;;;;0.30;0.30;;;17.20;99.90;;;;;;5066967;28;20289;-74
2021/11/03 10:01:28;;;;;;;0.75;0.28;;;19.50;99.90;;;;;;5061941;28;20209;-76
2021/11/03 10:04:11;;;;;;;0.47;0.30;;;15.80;99.90;;;;;;5070132;28;20661;-76
2021/11/03 10:06:48;;;;;;;0.57;0.30;;;14.00;99.90;;;;;;5064444;28;20279;-70
2021/11/03 10:09:17;;;;;;;0.20;0.20;;;13.00;99.90;;;;;;5064215;28;20239;-74
2021/11/03 10:11:48;;;;;;;0.57;0.45;;;12.50;99.90;;;;;;5069036;28;20206;-71
2021/11/03 10:14:15;;;;;;;0.60;0.40;;;12.40;99.90;;;;;;5069010;28;20206;-71
2021/11/03 10:16:46;;;;;;;0.55;0.40;;;12.30;99.90;;;;;;5059107;28;20264;-70
2021/11/03 10:19:30;;;;;;;0.70;0.40;;;12.20;99.90;;;;;;5062241;28;20256;-73
2021/11/03 10:22:00;;;;;;;1.63;0.45;;;12.10;99.90;;;;;;5070186;28;20257;-70
2021/11/03 10:24:38;;;;;;;1.17;0.85;;;12.30;99.90;;;;;;5058570;28;20233;-72
2021/11/03 10:27:18;;;;;;;1.35;0.28;;;12.50;99.90;;;;;;5065067;28;20233;-71
2021/11/03 10:29:48;;;;;;;0.50;0.40;;;12.40;99.90;;;;;;5069826;28;20209;-72
2021/11/03 10:32:38;;;;;;;4.13;0.55;;;12.60;99.90;;;;;;5056241;28;20244;-72
2021/11/03 10:35:23;;;;;;;0.90;0.28;;;12.50;99.90;;;;;;5066116;28;20210;-71
2021/11/03 10:37:59;;;;;;;0.30;0.30;;;12.30;99.90;;;;;;5069743;28;20198;-73
2021/11/03 10:40:29;;;;;;;2.00;0.40;;;12.40;99.90;;;;;;5069308;28;20275;-74
2021/11/03 10:43:00;;;;;;;0.30;0.20;;;12.60;99.90;;;;;;5069530;28;20198;-72
2021/11/03 10:45:31;;;;;;;0.68;0.38;;;12.90;99.90;;;;;;5062769;28;20202;-70
2021/11/03 10:48:14;;;;;;;0.35;0.35;;;13.80;99.90;;;;;;5057485;28;20233;-72
2021/11/03 10:50:58;;;;;;;0.32;0.30;;;13.80;99.90;;;;;;5060662;28;20293;-72
2021/11/03 10:53:27;;;;;;;0.70;0.40;;;13.40;99.90;;;;;;5069968;28;20206;-71
2021/11/03 10:56:01;;;;;;;0.35;0.20;;;13.20;99.90;;;;;;5068675;28;20206;-71
2021/11/03 10:58:31;;;;;;;1.48;0.22;;;12.90;99.90;;;;;;5068301;28;20206;-71
2021/11/03 11:01:11;;;;;;;1.17;0.43;;;12.60;99.90;;;;;;5066045;28;20252;-71
2021/11/03 11:03:49;;;;;;;0.30;0.20;;;13.00;99.90;;;;;;5070821;28;20203;-75
2021/11/03 11:06:21;;;;;;;0.52;0.20;;;13.30;99.90;;;;;;5072894;28;20681;-77
2021/11/03 11:08:54;;;;;;;0.40;0.30;;;13.60;99.90;;;;;;5071467;28;20263;-73
2021/11/03 11:11:24;;;;;;;0.77;0.30;;;13.50;99.90;;;;;;5066369;28;20210;-75
2021/11/03 11:14:01;;;;;;;0.75;0.30;;;13.60;99.90;;;;;;5069932;28;20217;-73
2021/11/03 11:16:37;;;;;;;0.60;0.32;;;13.60;99.90;;;;;;5066087;28;20198;-72
2021/11/03 11:19:17;;;;;;;0.98;0.28;;;13.40;99.90;;;;;;5068880;28;20213;-73
2021/11/03 11:21:49;;;;;;;0.30;0.30;;;13.20;99.90;;;;;;5066376;28;20251;-72
2021/11/03 11:24:29;;;;;;;1.20;0.38;;;13.10;99.90;;;;;;5072047;28;20578;-72
2021/11/03 11:27:07;;;;;;;1.58;0.28;;;12.90;99.90;;;;;;5073231;28;20202;-72
2021/11/03 11:29:41;;;;;;;2.50;0.25;;;12.90;99.90;;;;;;5059026;28;20259;-71
2021/11/03 11:32:24;;;;;;;0.32;0.30;;;13.00;99.90;;;;;;5062207;28;20206;-72
2021/11/03 11:35:10;;;;;;;0.63;0.30;;;12.80;99.90;;;;;;5068390;28;20674;-71
2021/11/03 11:37:44;;;;;;;0.45;0.40;;;12.70;99.90;;;;;;5061919;28;20623;-75
2021/11/03 11:40:27;;;;;;;1.48;0.40;;;12.60;99.90;;;;;;5064532;28;20259;-70
2021/11/03 11:43:01;;;;;;;0.40;0.30;;;12.80;99.90;;;;;;5063968;28;20206;-70
2021/11/03 11:45:30;;;;;;;0.40;0.30;;;12.80;99.90;;;;;;5072759;28;20650;-72
2021/11/03 11:48:02;;;;;;;1.30;0.20;;;13.00;99.90;;;;;;5064083;28;20226;-70
2021/11/03 11:50:40;;;;;;;1.17;0.30;;;13.20;99.90;;;;;;5071142;28;20731;-70
2021/11/03 11:53:29;;;;;;;0.60;0.40;;;13.30;99.90;;;;;;5067749;28;20209;-71
2021/11/03 11:56:30;;;;;;;0.38;0.30;;;13.50;99.90;;;;;;5072298;28;20202;-71
2021/11/03 11:59:04;;;;;;;0.30;0.20;;;13.70;99.90;;;;;;5037173;28;20207;-75
2021/11/03 12:01:39;;;;;;;1.27;0.50;;;13.70;99.90;;;;;;5045278;28;20202;-73
2021/11/03 12:04:39;;;;;;;0.38;0.22;;;13.80;99.90;;;;;;5061771;28;20307;-74
2021/11/03 12:07:22;;;;;;;1.67;0.30;;;13.90;99.90;;;;;;5054959;28;20206;-73
2021/11/03 12:10:24;;;;;;;0.40;0.38;;;13.70;99.90;;;;;;5071950;28;20653;-75
2021/11/03 12:13:27;;;;;;;0.65;0.30;;;13.70;99.90;;;;;;5069602;28;20202;-76
2021/11/03 12:16:29;;;;;;;0.47;0.25;;;13.40;99.90;;;;;;5069686;28;20223;-74
2021/11/03 12:18:58;;;;;;;0.45;0.22;;;13.10;99.90;;;;;;5067987;28;20201;-73
2021/11/03 12:21:38;;;;;;;0.57;0.30;;;12.80;99.90;;;;;;5058630;28;20207;-74
2021/11/03 12:24:41;;;;;;;0.25;0.25;;;13.20;99.90;;;;;;5065873;28;20280;-74
2021/11/03 12:27:30;;;;;;;0.93;0.68;;;13.10;99.90;;;;;;5039279;28;20769;-75
2021/11/03 12:30:00;;;;;;;4.65;2.28;;;13.20;99.90;;;;;;5066925;28;20283;-75
2021/11/03 12:32:32;;;;;;;1.08;0.75;;;13.50;99.90;;;;;;5072361;28;20198;-77
2021/11/03 12:35:22;;;;;;;2.53;1.00;;;14.00;99.90;;;;;;5065882;28;20734;-75
2021/11/03 12:37:52;;;;;;;1.02;0.30;;;14.30;99.90;;;;;;5065774;28;20206;-74
2021/11/03 12:40:40;;;;;;;0.20;0.20;;;13.80;99.90;;;;;;5062719;28;20233;-75
2021/11/03 12:43:17;;;;;;;0.38;0.20;;;13.20;99.90;;;;;;5059270;28;20206;-73
2021/11/03 12:45:54;;;;;;;3.75;0.30;;;12.50;99.90;;;;;;5063546;28;20214;-74
2021/11/03 12:48:25;;;;;;;0.40;0.30;;;12.10;99.90;;;;;;5065885;28;20218;-74
2021/11/03 12:50:52;;;;;;;1.88;0.70;;;12.00;99.90;;;;;;5062484;28;20203;-73
2021/11/03 12:53:22;;;;;;;1.23;0.70;;;12.10;99.90;;;;;;5067413;28;20210;-74
2021/11/03 12:55:57;;;;;;;1.77;0.68;;;12.30;99.90;;;;;;5062377;28;20199;-75
2021/11/03 12:58:27;;;;;;;0.93;0.68;;;12.50;99.90;;;;;;5061519;28;20714;-75
2021/11/03 13:00:54;;;;;;;1.58;1.45;;;12.60;99.90;;;;;;5057007;28;20218;-73
2021/11/03 13:03:24;;;;;;;0.90;0.47;;;12.60;99.90;;;;;;5061998;28;20210;-74
2021/11/03 13:05:52;;;;;;;0.55;0.38;;;12.60;99.90;;;;;;5069482;28;20755;-74
2021/11/03 13:08:24;;;;;;;1.13;0.40;;;13.10;99.90;;;;;;5071454;28;20234;-77